sensor_id;sensor_type;location;lat;lon;timestamp;temperature;humidity
67249;SHT31;63247;54.300;18.592;2023-12-20T00:01:32;6.54;99.99
67249;SHT31;63247;54.300;18.592;2023-12-20T00:03:57;6.59;99.99
67249;SHT31;63247;54.300;18.592;2023-12-20T00:06:23;6.56;99.99
67249;SHT31;63247;54.300;18.592;2023-12-20T00:08:48;6.55;99.99
67249;SHT31;63247;54.300;18.592;2023-12-20T00:11:13;6.54;99.99
67249;SHT31;63247;54.300;18.592;2023-12-20T00:13:39;6.54;99.99
67249;SHT31;63247;54.300;18.592;2023-12-20T00:16:04;6.48;99.99
67249;SHT31;63247;54.300;18.592;2023-12-20T00:18:30;6.55;99.99
67249;SHT31;63247;54.300;18.592;2023-12-20T00:20:55;6.55;99.99
67249;SHT31;63247;54.300;18.592;2023-12-20T00:23:20;6.51;99.99
67249;SHT31;63247;54.300;18.592;2023-12-20T00:25:48;6.46;99.99
67249;SHT31;63247;54.300;18.592;2023-12-20T00:28:13;6.48;99.99
67249;SHT31;63247;54.300;18.592;2023-12-20T00:30:38;6.49;99.99
67249;SHT31;63247;54.300;18.592;2023-12-20T00:33:04;6.45;99.99
67249;SHT31;63247;54.300;18.592;2023-12-20T00:35:29;6.46;99.99
67249;SHT31;63247;54.300;18.592;2023-12-20T00:37:55;6.48;99.99
67249;SHT31;63247;54.300;18.592;2023-12-20T00:40:20;6.45;99.99
67249;SHT31;63247;54.300;18.592;2023-12-20T00:42:46;6.41;99.99
67249;SHT31;63247;54.300;18.592;2023-12-20T00:45:12;6.45;99.99
67249;SHT31;63247;54.300;18.592;2023-12-20T00:47:37;6.56;99.99
67249;SHT31;63247;54.300;18.592;2023-12-20T00:50:03;6.58;99.99
67249;SHT31;63247;54.300;18.592;2023-12-20T00:52:28;6.71;99.99
67249;SHT31;63247;54.300;18.592;2023-12-20T00:54:54;6.54;99.99
67249;SHT31;63247;54.300;18.592;2023-12-20T00:57:19;6.48;99.99
67249;SHT31;63247;54.300;18.592;2023-12-20T00:59:44;6.44;99.99
67249;SHT31;63247;54.300;18.592;2023-12-20T01:02:10;6.41;99.99
67249;SHT31;63247;54.300;18.592;2023-12-20T01:04:35;6.40;99.99
67249;SHT31;63247;54.300;18.592;2023-12-20T01:07:01;6.31;99.99
67249;SHT31;63247;54.300;18.592;2023-12-20T01:09:26;6.27;99.99
67249;SHT31;63247;54.300;18.592;2023-12-20T01:11:53;6.10;99.99
67249;SHT31;63247;54.300;18.592;2023-12-20T01:14:18;6.10;99.99
67249;SHT31;63247;54.300;18.592;2023-12-20T01:16:44;5.97;99.99
67249;SHT31;63247;54.300;18.592;2023-12-20T01:19:09;5.90;99.99
67249;SHT31;63247;54.300;18.592;2023-12-20T01:21:34;5.72;99.99
67249;SHT31;63247;54.300;18.592;2023-12-20T01:24:00;5.56;99.99
67249;SHT31;63247;54.300;18.592;2023-12-20T01:26:25;5.49;99.99
67249;SHT31;63247;54.300;18.592;2023-12-20T01:28:50;5.47;99.99
67249;SHT31;63247;54.300;18.592;2023-12-20T01:31:16;5.42;99.99
67249;SHT31;63247;54.300;18.592;2023-12-20T01:33:41;5.41;99.99
67249;SHT31;63247;54.300;18.592;2023-12-20T01:36:06;5.35;99.99
67249;SHT31;63247;54.300;18.592;2023-12-20T01:38:32;5.42;99.99
67249;SHT31;63247;54.300;18.592;2023-12-20T01:40:57;5.38;99.99
67249;SHT31;63247;54.300;18.592;2023-12-20T01:43:23;5.41;99.99
67249;SHT31;63247;54.300;18.592;2023-12-20T01:45:48;5.38;99.99
67249;SHT31;63247;54.300;18.592;2023-12-20T01:48:14;5.34;99.99
67249;SHT31;63247;54.300;18.592;2023-12-20T01:50:41;5.38;99.99
67249;SHT31;63247;54.300;18.592;2023-12-20T01:53:09;5.39;99.99
67249;SHT31;63247;54.300;18.592;2023-12-20T01:55:36;5.38;99.99
67249;SHT31;63247;54.300;18.592;2023-12-20T01:58:04;5.18;99.99
67249;SHT31;63247;54.300;18.592;2023-12-20T02:00:30;5.08;99.99
67249;SHT31;63247;54.300;18.592;2023-12-20T02:02:56;5.08;99.99
67249;SHT31;63247;54.300;18.592;2023-12-20T02:05:23;4.97;99.99
67249;SHT31;63247;54.300;18.592;2023-12-20T02:07:50;4.84;99.99
67249;SHT31;63247;54.300;18.592;2023-12-20T02:10:16;4.81;99.99
67249;SHT31;63247;54.300;18.592;2023-12-20T02:12:41;4.73;99.99
67249;SHT31;63247;54.300;18.592;2023-12-20T02:15:07;4.63;99.99
67249;SHT31;63247;54.300;18.592;2023-12-20T02:17:32;4.59;99.99
67249;SHT31;63247;54.300;18.592;2023-12-20T02:19:58;4.60;99.99
67249;SHT31;63247;54.300;18.592;2023-12-20T02:22:24;4.46;99.99
67249;SHT31;63247;54.300;18.592;2023-12-20T02:24:49;4.51;99.99
67249;SHT31;63247;54.300;18.592;2023-12-20T02:27:15;4.53;99.99
67249;SHT31;63247;54.300;18.592;2023-12-20T02:29:43;4.49;99.99
67249;SHT31;63247;54.300;18.592;2023-12-20T02:32:08;4.44;99.99
67249;SHT31;63247;54.300;18.592;2023-12-20T02:34:33;4.52;99.99
67249;SHT31;63247;54.300;18.592;2023-12-20T02:36:59;4.48;99.99
67249;SHT31;63247;54.300;18.592;2023-12-20T02:39:24;4.53;99.99
67249;SHT31;63247;54.300;18.592;2023-12-20T02:41:50;4.49;99.99
67249;SHT31;63247;54.300;18.592;2023-12-20T02:44:15;4.46;99.99
67249;SHT31;63247;54.300;18.592;2023-12-20T02:46:40;4.39;99.99
67249;SHT31;63247;54.300;18.592;2023-12-20T02:49:06;4.41;99.99
67249;SHT31;63247;54.300;18.592;2023-12-20T02:51:31;4.37;99.99
67249;SHT31;63247;54.300;18.592;2023-12-20T02:53:57;4.38;99.99
67249;SHT31;63247;54.300;18.592;2023-12-20T02:56:22;4.42;99.99
67249;SHT31;63247;54.300;18.592;2023-12-20T02:58:48;4.34;99.99
67249;SHT31;63247;54.300;18.592;2023-12-20T03:01:13;4.35;99.99
67249;SHT31;63247;54.300;18.592;2023-12-20T03:03:39;4.28;99.99
67249;SHT31;63247;54.300;18.592;2023-12-20T03:06:04;4.28;99.99
67249;SHT31;63247;54.300;18.592;2023-12-20T03:08:29;4.30;99.99
67249;SHT31;63247;54.300;18.592;2023-12-20T03:10:55;4.34;99.99
67249;SHT31;63247;54.300;18.592;2023-12-20T03:13:20;4.34;99.99
67249;SHT31;63247;54.300;18.592;2023-12-20T03:15:45;4.24;99.99
67249;SHT31;63247;54.300;18.592;2023-12-20T03:18:11;4.12;99.99
67249;SHT31;63247;54.300;18.592;2023-12-20T03:20:37;4.08;99.99
67249;SHT31;63247;54.300;18.592;2023-12-20T03:23:03;3.97;99.99
67249;SHT31;63247;54.300;18.592;2023-12-20T03:25:28;3.79;99.99
67249;SHT31;63247;54.300;18.592;2023-12-20T03:27:53;3.69;99.99
67249;SHT31;63247;54.300;18.592;2023-12-20T03:30:19;3.70;99.99
67249;SHT31;63247;54.300;18.592;2023-12-20T03:32:45;3.67;99.99
67249;SHT31;63247;54.300;18.592;2023-12-20T03:35:10;3.69;99.99
67249;SHT31;63247;54.300;18.592;2023-12-20T03:37:36;3.56;99.99
67249;SHT31;63247;54.300;18.592;2023-12-20T03:40:02;3.48;99.99
67249;SHT31;63247;54.300;18.592;2023-12-20T03:42:28;3.52;99.99
67249;SHT31;63247;54.300;18.592;2023-12-20T03:44:53;3.53;99.99
67249;SHT31;63247;54.300;18.592;2023-12-20T03:47:18;3.53;99.99
67249;SHT31;63247;54.300;18.592;2023-12-20T03:49:44;3.53;99.99
67249;SHT31;63247;54.300;18.592;2023-12-20T03:52:09;3.56;99.99
67249;SHT31;63247;54.300;18.592;2023-12-20T03:54:35;3.59;99.99
67249;SHT31;63247;54.300;18.592;2023-12-20T03:57:01;3.59;99.99
67249;SHT31;63247;54.300;18.592;2023-12-20T03:59:26;3.60;99.99
67249;SHT31;63247;54.300;18.592;2023-12-20T04:01:51;3.62;99.99
67249;SHT31;63247;54.300;18.592;2023-12-20T04:04:17;3.56;99.99
67249;SHT31;63247;54.300;18.592;2023-12-20T04:06:42;3.51;99.99
67249;SHT31;63247;54.300;18.592;2023-12-20T04:09:08;3.51;99.99
67249;SHT31;63247;54.300;18.592;2023-12-20T04:11:37;3.51;99.99
67249;SHT31;63247;54.300;18.592;2023-12-20T04:14:02;3.53;99.99
67249;SHT31;63247;54.300;18.592;2023-12-20T04:16:28;3.45;99.99
67249;SHT31;63247;54.300;18.592;2023-12-20T04:18:53;3.33;99.99
67249;SHT31;63247;54.300;18.592;2023-12-20T04:21:18;3.31;99.99
67249;SHT31;63247;54.300;18.592;2023-12-20T04:23:44;3.31;99.99
67249;SHT31;63247;54.300;18.592;2023-12-20T04:26:10;3.26;99.99
67249;SHT31;63247;54.300;18.592;2023-12-20T04:28:35;3.19;99.99
67249;SHT31;63247;54.300;18.592;2023-12-20T04:31:00;3.18;99.99
67249;SHT31;63247;54.300;18.592;2023-12-20T04:33:26;3.08;99.99
67249;SHT31;63247;54.300;18.592;2023-12-20T04:35:51;3.07;99.99
67249;SHT31;63247;54.300;18.592;2023-12-20T04:38:16;3.05;99.99
67249;SHT31;63247;54.300;18.592;2023-12-20T04:40:42;3.03;99.99
67249;SHT31;63247;54.300;18.592;2023-12-20T04:43:07;2.98;99.99
67249;SHT31;63247;54.300;18.592;2023-12-20T04:45:34;2.93;99.99
67249;SHT31;63247;54.300;18.592;2023-12-20T04:47:59;2.93;99.99
67249;SHT31;63247;54.300;18.592;2023-12-20T04:50:24;2.97;99.99
67249;SHT31;63247;54.300;18.592;2023-12-20T04:52:50;2.94;99.99
67249;SHT31;63247;54.300;18.592;2023-12-20T04:55:16;2.97;99.99
67249;SHT31;63247;54.300;18.592;2023-12-20T04:57:41;2.97;99.99
67249;SHT31;63247;54.300;18.592;2023-12-20T05:00:07;3.00;99.99
67249;SHT31;63247;54.300;18.592;2023-12-20T05:02:34;2.95;99.99
67249;SHT31;63247;54.300;18.592;2023-12-20T05:05:00;3.07;99.99
67249;SHT31;63247;54.300;18.592;2023-12-20T05:07:25;3.03;99.99
67249;SHT31;63247;54.300;18.592;2023-12-20T05:09:50;3.11;99.99
67249;SHT31;63247;54.300;18.592;2023-12-20T05:12:16;3.19;99.99
67249;SHT31;63247;54.300;18.592;2023-12-20T05:14:41;3.09;99.99
67249;SHT31;63247;54.300;18.592;2023-12-20T05:17:07;3.12;99.99
67249;SHT31;63247;54.300;18.592;2023-12-20T05:19:32;3.15;99.99
67249;SHT31;63247;54.300;18.592;2023-12-20T05:22:00;3.07;99.99
67249;SHT31;63247;54.300;18.592;2023-12-20T05:24:26;2.98;99.99
67249;SHT31;63247;54.300;18.592;2023-12-20T05:26:51;2.87;99.99
67249;SHT31;63247;54.300;18.592;2023-12-20T05:29:17;2.84;99.99
67249;SHT31;63247;54.300;18.592;2023-12-20T05:31:43;2.80;99.99
67249;SHT31;63247;54.300;18.592;2023-12-20T05:34:08;2.84;99.99
67249;SHT31;63247;54.300;18.592;2023-12-20T05:36:33;2.76;99.99
67249;SHT31;63247;54.300;18.592;2023-12-20T05:38:59;2.80;99.99
67249;SHT31;63247;54.300;18.592;2023-12-20T05:41:24;2.83;99.99
67249;SHT31;63247;54.300;18.592;2023-12-20T05:43:49;2.79;99.99
67249;SHT31;63247;54.300;18.592;2023-12-20T05:46:15;2.77;99.99
67249;SHT31;63247;54.300;18.592;2023-12-20T05:48:40;2.72;99.99
67249;SHT31;63247;54.300;18.592;2023-12-20T05:51:05;2.60;99.99
67249;SHT31;63247;54.300;18.592;2023-12-20T05:53:31;2.57;99.99
67249;SHT31;63247;54.300;18.592;2023-12-20T05:55:56;2.57;99.99
67249;SHT31;63247;54.300;18.592;2023-12-20T05:58:21;2.50;99.99
67249;SHT31;63247;54.300;18.592;2023-12-20T06:00:47;2.45;99.99
67249;SHT31;63247;54.300;18.592;2023-12-20T06:03:14;2.40;99.99
67249;SHT31;63247;54.300;18.592;2023-12-20T06:05:39;2.56;99.99
67249;SHT31;63247;54.300;18.592;2023-12-20T06:08:05;2.53;99.99
67249;SHT31;63247;54.300;18.592;2023-12-20T06:10:30;2.50;99.99
67249;SHT31;63247;54.300;18.592;2023-12-20T06:12:55;2.54;99.99
67249;SHT31;63247;54.300;18.592;2023-12-20T06:15:21;2.46;99.99
67249;SHT31;63247;54.300;18.592;2023-12-20T06:17:47;2.43;99.99
67249;SHT31;63247;54.300;18.592;2023-12-20T06:20:12;2.42;99.99
67249;SHT31;63247;54.300;18.592;2023-12-20T06:22:38;2.43;99.99
67249;SHT31;63247;54.300;18.592;2023-12-20T06:25:04;2.42;99.99
67249;SHT31;63247;54.300;18.592;2023-12-20T06:27:30;2.39;99.99
67249;SHT31;63247;54.300;18.592;2023-12-20T06:29:57;2.42;99.99
67249;SHT31;63247;54.300;18.592;2023-12-20T06:32:23;2.39;99.99
67249;SHT31;63247;54.300;18.592;2023-12-20T06:34:49;2.37;99.99
67249;SHT31;63247;54.300;18.592;2023-12-20T06:37:15;2.28;99.99
67249;SHT31;63247;54.300;18.592;2023-12-20T06:39:40;2.21;99.99
67249;SHT31;63247;54.300;18.592;2023-12-20T06:42:06;2.22;99.99
67249;SHT31;63247;54.300;18.592;2023-12-20T06:44:31;2.14;99.99
67249;SHT31;63247;54.300;18.592;2023-12-20T06:46:57;2.05;99.99
67249;SHT31;63247;54.300;18.592;2023-12-20T06:49:22;2.04;99.99
67249;SHT31;63247;54.300;18.592;2023-12-20T06:51:48;1.94;99.99
67249;SHT31;63247;54.300;18.592;2023-12-20T06:54:13;1.95;99.99
67249;SHT31;63247;54.300;18.592;2023-12-20T06:56:38;1.93;99.99
67249;SHT31;63247;54.300;18.592;2023-12-20T06:59:04;1.95;99.99
67249;SHT31;63247;54.300;18.592;2023-12-20T07:01:29;1.95;99.99
67249;SHT31;63247;54.300;18.592;2023-12-20T07:03:54;1.84;99.99
67249;SHT31;63247;54.300;18.592;2023-12-20T07:06:20;1.84;99.99
67249;SHT31;63247;54.300;18.592;2023-12-20T07:08:45;1.82;99.99
67249;SHT31;63247;54.300;18.592;2023-12-20T07:11:11;1.81;99.99
67249;SHT31;63247;54.300;18.592;2023-12-20T07:13:37;1.81;99.99
67249;SHT31;63247;54.300;18.592;2023-12-20T07:16:03;1.89;99.99
67249;SHT31;63247;54.300;18.592;2023-12-20T07:18:28;1.89;99.99
67249;SHT31;63247;54.300;18.592;2023-12-20T07:20:54;1.94;99.99
67249;SHT31;63247;54.300;18.592;2023-12-20T07:23:20;1.89;99.99
67249;SHT31;63247;54.300;18.592;2023-12-20T07:25:46;1.94;99.99
67249;SHT31;63247;54.300;18.592;2023-12-20T07:28:12;1.99;99.99
67249;SHT31;63247;54.300;18.592;2023-12-20T07:30:37;2.05;99.99
67249;SHT31;63247;54.300;18.592;2023-12-20T07:33:03;2.05;99.99
67249;SHT31;63247;54.300;18.592;2023-12-20T07:35:28;2.05;99.99
67249;SHT31;63247;54.300;18.592;2023-12-20T07:37:53;2.05;99.99
67249;SHT31;63247;54.300;18.592;2023-12-20T07:40:19;2.02;99.99
67249;SHT31;63247;54.300;18.592;2023-12-20T07:42:44;2.09;99.99
67249;SHT31;63247;54.300;18.592;2023-12-20T07:45:10;2.08;99.99
67249;SHT31;63247;54.300;18.592;2023-12-20T07:47:36;2.11;99.99
67249;SHT31;63247;54.300;18.592;2023-12-20T07:50:02;2.18;99.99
67249;SHT31;63247;54.300;18.592;2023-12-20T07:52:28;2.22;99.99
67249;SHT31;63247;54.300;18.592;2023-12-20T07:54:54;2.42;99.99
67249;SHT31;63247;54.300;18.592;2023-12-20T07:57:19;2.37;99.99
67249;SHT31;63247;54.300;18.592;2023-12-20T07:59:45;2.46;99.99
67249;SHT31;63247;54.300;18.592;2023-12-20T08:02:10;2.52;99.99
67249;SHT31;63247;54.300;18.592;2023-12-20T08:04:35;2.54;99.99
67249;SHT31;63247;54.300;18.592;2023-12-20T08:07:01;2.61;99.99
67249;SHT31;63247;54.300;18.592;2023-12-20T08:09:26;2.70;99.99
67249;SHT31;63247;54.300;18.592;2023-12-20T08:11:52;2.95;99.99
67249;SHT31;63247;54.300;18.592;2023-12-20T08:14:17;3.19;99.99
67249;SHT31;63247;54.300;18.592;2023-12-20T08:16:42;3.84;99.99
67249;SHT31;63247;54.300;18.592;2023-12-20T08:19:08;4.51;99.99
67249;SHT31;63247;54.300;18.592;2023-12-20T08:21:33;5.21;99.99
67249;SHT31;63247;54.300;18.592;2023-12-20T08:23:59;5.41;99.99
67249;SHT31;63247;54.300;18.592;2023-12-20T08:26:26;5.58;99.99
67249;SHT31;63247;54.300;18.592;2023-12-20T08:28:51;5.45;99.83
67249;SHT31;63247;54.300;18.592;2023-12-20T08:31:17;4.94;99.99
67249;SHT31;63247;54.300;18.592;2023-12-20T08:33:47;4.77;99.99
67249;SHT31;63247;54.300;18.592;2023-12-20T08:36:13;5.76;98.97
67249;SHT31;63247;54.300;18.592;2023-12-20T08:38:38;5.44;99.57
67249;SHT31;63247;54.300;18.592;2023-12-20T08:41:04;5.73;99.60
67249;SHT31;63247;54.300;18.592;2023-12-20T08:43:35;6.61;97.29
67249;SHT31;63247;54.300;18.592;2023-12-20T08:46:01;7.10;94.84
67249;SHT31;63247;54.300;18.592;2023-12-20T08:48:28;7.71;93.31
67249;SHT31;63247;54.300;18.592;2023-12-20T08:50:53;8.43;91.88
67249;SHT31;63247;54.300;18.592;2023-12-20T08:53:19;8.57;91.29
67249;SHT31;63247;54.300;18.592;2023-12-20T08:55:45;8.77;90.84
67249;SHT31;63247;54.300;18.592;2023-12-20T08:58:10;9.26;89.71
67249;SHT31;63247;54.300;18.592;2023-12-20T09:00:36;9.08;88.74
67249;SHT31;63247;54.300;18.592;2023-12-20T09:03:02;8.92;88.71
67249;SHT31;63247;54.300;18.592;2023-12-20T09:05:27;7.74;92.16
67249;SHT31;63247;54.300;18.592;2023-12-20T09:07:53;7.64;92.46
67249;SHT31;63247;54.300;18.592;2023-12-20T09:10:19;7.46;93.47
67249;SHT31;63247;54.300;18.592;2023-12-20T09:12:50;8.37;90.20
67249;SHT31;63247;54.300;18.592;2023-12-20T09:15:15;8.71;89.34
67249;SHT31;63247;54.300;18.592;2023-12-20T09:17:40;7.88;91.27
67249;SHT31;63247;54.300;18.592;2023-12-20T09:20:07;7.04;93.77
67249;SHT31;63247;54.300;18.592;2023-12-20T09:22:33;6.13;96.31
67249;SHT31;63247;54.300;18.592;2023-12-20T09:24:59;5.73;97.64
67249;SHT31;63247;54.300;18.592;2023-12-20T09:27:25;5.65;98.43
67249;SHT31;63247;54.300;18.592;2023-12-20T09:29:50;5.59;98.81
67249;SHT31;63247;54.300;18.592;2023-12-20T09:32:15;6.35;97.11
67249;SHT31;63247;54.300;18.592;2023-12-20T09:34:41;7.38;94.40
67249;SHT31;63247;54.300;18.592;2023-12-20T09:37:07;7.30;94.32
67249;SHT31;63247;54.300;18.592;2023-12-20T09:39:33;6.93;95.24
67249;SHT31;63247;54.300;18.592;2023-12-20T09:42:04;7.22;94.40
67249;SHT31;63247;54.300;18.592;2023-12-20T09:44:30;7.24;94.41
67249;SHT31;63247;54.300;18.592;2023-12-20T09:46:57;6.82;95.70
67249;SHT31;63247;54.300;18.592;2023-12-20T09:49:23;6.33;96.39
67249;SHT31;63247;54.300;18.592;2023-12-20T09:51:50;6.06;97.89
67249;SHT31;63247;54.300;18.592;2023-12-20T09:54:17;6.34;97.79
67249;SHT31;63247;54.300;18.592;2023-12-20T09:56:43;6.10;98.21
67249;SHT31;63247;54.300;18.592;2023-12-20T09:59:09;6.45;97.53
67249;SHT31;63247;54.300;18.592;2023-12-20T10:01:35;6.31;98.36
67249;SHT31;63247;54.300;18.592;2023-12-20T10:04:05;6.45;97.11
67249;SHT31;63247;54.300;18.592;2023-12-20T10:06:35;6.45;97.68
67249;SHT31;63247;54.300;18.592;2023-12-20T10:09:00;6.83;95.94
67249;SHT31;63247;54.300;18.592;2023-12-20T10:11:25;6.44;96.71
67249;SHT31;63247;54.300;18.592;2023-12-20T10:13:51;6.58;97.05
67249;SHT31;63247;54.300;18.592;2023-12-20T10:16:16;5.92;98.38
67249;SHT31;63247;54.300;18.592;2023-12-20T10:18:41;5.86;98.55
67249;SHT31;63247;54.300;18.592;2023-12-20T10:21:07;5.58;99.41
67249;SHT31;63247;54.300;18.592;2023-12-20T10:23:36;5.60;99.63
67249;SHT31;63247;54.300;18.592;2023-12-20T10:26:02;5.60;99.70
67249;SHT31;63247;54.300;18.592;2023-12-20T10:28:33;5.37;99.99
67249;SHT31;63247;54.300;18.592;2023-12-20T10:30:59;5.30;99.99
67249;SHT31;63247;54.300;18.592;2023-12-20T10:33:30;5.17;99.99
67249;SHT31;63247;54.300;18.592;2023-12-20T10:35:57;5.03;99.99
67249;SHT31;63247;54.300;18.592;2023-12-20T10:38:22;5.00;99.99
67249;SHT31;63247;54.300;18.592;2023-12-20T10:40:49;4.96;99.99
67249;SHT31;63247;54.300;18.592;2023-12-20T10:43:18;4.86;99.99
67249;SHT31;63247;54.300;18.592;2023-12-20T10:45:44;4.83;99.99
67249;SHT31;63247;54.300;18.592;2023-12-20T10:48:10;4.83;99.99
67249;SHT31;63247;54.300;18.592;2023-12-20T10:50:40;4.77;99.99
67249;SHT31;63247;54.300;18.592;2023-12-20T10:53:06;4.81;99.99
67249;SHT31;63247;54.300;18.592;2023-12-20T10:55:32;4.81;99.99
67249;SHT31;63247;54.300;18.592;2023-12-20T10:58:07;4.87;99.99
67249;SHT31;63247;54.300;18.592;2023-12-20T11:00:39;4.80;99.99
67249;SHT31;63247;54.300;18.592;2023-12-20T11:03:06;4.83;99.99
67249;SHT31;63247;54.300;18.592;2023-12-20T11:05:41;4.83;99.99
67249;SHT31;63247;54.300;18.592;2023-12-20T11:08:16;4.83;99.99
67249;SHT31;63247;54.300;18.592;2023-12-20T11:11:02;4.84;99.99
67249;SHT31;63247;54.300;18.592;2023-12-20T11:14:00;4.83;99.99
67249;SHT31;63247;54.300;18.592;2023-12-20T11:16:27;4.90;99.99
67249;SHT31;63247;54.300;18.592;2023-12-20T11:18:52;4.86;99.99
67249;SHT31;63247;54.300;18.592;2023-12-20T11:21:17;4.90;99.99
67249;SHT31;63247;54.300;18.592;2023-12-20T11:23:43;4.93;99.99
67249;SHT31;63247;54.300;18.592;2023-12-20T11:26:08;4.94;99.99
67249;SHT31;63247;54.300;18.592;2023-12-20T11:28:34;4.97;99.99
67249;SHT31;63247;54.300;18.592;2023-12-20T11:31:01;5.01;99.99
67249;SHT31;63247;54.300;18.592;2023-12-20T11:33:45;5.06;99.99
67249;SHT31;63247;54.300;18.592;2023-12-20T11:36:14;5.06;99.99
67249;SHT31;63247;54.300;18.592;2023-12-20T11:39:01;5.08;99.99
67249;SHT31;63247;54.300;18.592;2023-12-20T11:41:32;5.11;99.99
67249;SHT31;63247;54.300;18.592;2023-12-20T11:43:57;5.18;99.99
67249;SHT31;63247;54.300;18.592;2023-12-20T11:46:23;5.20;99.99
67249;SHT31;63247;54.300;18.592;2023-12-20T11:48:48;5.16;99.99
67249;SHT31;63247;54.300;18.592;2023-12-20T11:51:14;5.11;99.99
67249;SHT31;63247;54.300;18.592;2023-12-20T11:53:40;5.11;99.99
67249;SHT31;63247;54.300;18.592;2023-12-20T11:56:06;5.17;99.99
67249;SHT31;63247;54.300;18.592;2023-12-20T11:58:33;5.17;99.99
67249;SHT31;63247;54.300;18.592;2023-12-20T12:00:58;5.26;99.99
67249;SHT31;63247;54.300;18.592;2023-12-20T12:03:24;5.24;99.99
67249;SHT31;63247;54.300;18.592;2023-12-20T12:05:49;5.26;99.99
67249;SHT31;63247;54.300;18.592;2023-12-20T12:08:15;5.23;99.99
67249;SHT31;63247;54.300;18.592;2023-12-20T12:10:41;5.32;99.99
67249;SHT31;63247;54.300;18.592;2023-12-20T12:13:06;5.31;99.99
67249;SHT31;63247;54.300;18.592;2023-12-20T12:15:32;5.27;99.99
67249;SHT31;63247;54.300;18.592;2023-12-20T12:17:57;5.18;99.99
67249;SHT31;63247;54.300;18.592;2023-12-20T12:20:24;5.18;99.99
67249;SHT31;63247;54.300;18.592;2023-12-20T12:23:06;5.11;99.99
67249;SHT31;63247;54.300;18.592;2023-12-20T12:25:35;5.06;99.99
67249;SHT31;63247;54.300;18.592;2023-12-20T12:28:01;5.00;99.99
67249;SHT31;63247;54.300;18.592;2023-12-20T12:30:27;5.03;99.99
67249;SHT31;63247;54.300;18.592;2023-12-20T12:32:53;5.00;99.99
67249;SHT31;63247;54.300;18.592;2023-12-20T12:35:19;4.99;99.99
67249;SHT31;63247;54.300;18.592;2023-12-20T12:37:44;4.97;99.99
67249;SHT31;63247;54.300;18.592;2023-12-20T12:40:14;4.99;99.99
67249;SHT31;63247;54.300;18.592;2023-12-20T12:42:41;4.99;99.99
67249;SHT31;63247;54.300;18.592;2023-12-20T12:45:07;5.00;99.99
67249;SHT31;63247;54.300;18.592;2023-12-20T12:47:33;5.00;99.99
67249;SHT31;63247;54.300;18.592;2023-12-20T12:49:59;4.99;99.99
67249;SHT31;63247;54.300;18.592;2023-12-20T12:52:24;4.96;99.99
67249;SHT31;63247;54.300;18.592;2023-12-20T12:54:50;4.97;99.99
67249;SHT31;63247;54.300;18.592;2023-12-20T12:57:15;4.94;99.99
67249;SHT31;63247;54.300;18.592;2023-12-20T12:59:42;4.97;99.99
67249;SHT31;63247;54.300;18.592;2023-12-20T13:02:09;4.94;99.99
67249;SHT31;63247;54.300;18.592;2023-12-20T13:04:34;4.94;99.99
67249;SHT31;63247;54.300;18.592;2023-12-20T13:06:59;4.90;99.99
67249;SHT31;63247;54.300;18.592;2023-12-20T13:09:25;4.89;99.99
67249;SHT31;63247;54.300;18.592;2023-12-20T13:11:50;4.84;99.99
67249;SHT31;63247;54.300;18.592;2023-12-20T13:14:16;4.81;99.99
67249;SHT31;63247;54.300;18.592;2023-12-20T13:16:42;4.77;99.99
67249;SHT31;63247;54.300;18.592;2023-12-20T13:19:07;4.73;99.99
67249;SHT31;63247;54.300;18.592;2023-12-20T13:21:33;4.75;99.99
67249;SHT31;63247;54.300;18.592;2023-12-20T13:23:59;4.73;99.99
67249;SHT31;63247;54.300;18.592;2023-12-20T13:26:24;4.68;99.99
67249;SHT31;63247;54.300;18.592;2023-12-20T13:28:50;4.69;99.99
67249;SHT31;63247;54.300;18.592;2023-12-20T13:31:15;4.72;99.99
67249;SHT31;63247;54.300;18.592;2023-12-20T13:33:40;4.72;99.99
67249;SHT31;63247;54.300;18.592;2023-12-20T13:36:06;4.69;99.99
67249;SHT31;63247;54.300;18.592;2023-12-20T13:38:31;4.72;99.99
67249;SHT31;63247;54.300;18.592;2023-12-20T13:40:57;4.72;99.99
67249;SHT31;63247;54.300;18.592;2023-12-20T13:43:23;4.75;99.99
67249;SHT31;63247;54.300;18.592;2023-12-20T13:45:50;4.69;99.99
67249;SHT31;63247;54.300;18.592;2023-12-20T13:48:15;4.73;99.99
67249;SHT31;63247;54.300;18.592;2023-12-20T13:50:41;4.69;99.99
67249;SHT31;63247;54.300;18.592;2023-12-20T13:53:06;4.65;99.99
67249;SHT31;63247;54.300;18.592;2023-12-20T13:55:32;4.56;99.99
67249;SHT31;63247;54.300;18.592;2023-12-20T13:57:57;4.58;99.99
67249;SHT31;63247;54.300;18.592;2023-12-20T14:00:23;4.60;99.99
67249;SHT31;63247;54.300;18.592;2023-12-20T14:02:48;4.56;99.99
67249;SHT31;63247;54.300;18.592;2023-12-20T14:05:15;4.60;99.99
67249;SHT31;63247;54.300;18.592;2023-12-20T14:07:43;4.62;99.99
67249;SHT31;63247;54.300;18.592;2023-12-20T14:10:11;4.58;99.99
67249;SHT31;63247;54.300;18.592;2023-12-20T14:12:38;4.56;99.99
67249;SHT31;63247;54.300;18.592;2023-12-20T14:15:03;4.53;99.99
67249;SHT31;63247;54.300;18.592;2023-12-20T14:17:29;4.56;99.99
67249;SHT31;63247;54.300;18.592;2023-12-20T14:19:54;4.56;99.99
67249;SHT31;63247;54.300;18.592;2023-12-20T14:22:20;4.59;99.99
67249;SHT31;63247;54.300;18.592;2023-12-20T14:24:45;4.59;99.99
67249;SHT31;63247;54.300;18.592;2023-12-20T14:27:11;4.56;99.99
67249;SHT31;63247;54.300;18.592;2023-12-20T14:29:36;4.52;99.99
67249;SHT31;63247;54.300;18.592;2023-12-20T14:32:03;4.41;99.99
67249;SHT31;63247;54.300;18.592;2023-12-20T14:34:29;4.37;99.99
67249;SHT31;63247;54.300;18.592;2023-12-20T14:36:54;4.34;99.99
67249;SHT31;63247;54.300;18.592;2023-12-20T14:39:20;4.37;99.99
67249;SHT31;63247;54.300;18.592;2023-12-20T14:41:46;4.41;99.99
67249;SHT31;63247;54.300;18.592;2023-12-20T14:44:11;4.42;99.99
67249;SHT31;63247;54.300;18.592;2023-12-20T14:46:36;4.42;99.99
67249;SHT31;63247;54.300;18.592;2023-12-20T14:49:03;4.45;99.99
67249;SHT31;63247;54.300;18.592;2023-12-20T14:51:28;4.44;99.99
67249;SHT31;63247;54.300;18.592;2023-12-20T14:53:54;4.45;99.99
67249;SHT31;63247;54.300;18.592;2023-12-20T14:56:19;4.46;99.99
67249;SHT31;63247;54.300;18.592;2023-12-20T14:58:45;4.45;99.99
67249;SHT31;63247;54.300;18.592;2023-12-20T15:01:11;4.48;99.99
67249;SHT31;63247;54.300;18.592;2023-12-20T15:03:36;4.48;99.99
67249;SHT31;63247;54.300;18.592;2023-12-20T15:06:01;4.49;99.99
67249;SHT31;63247;54.300;18.592;2023-12-20T15:08:27;4.48;99.99
67249;SHT31;63247;54.300;18.592;2023-12-20T15:10:52;4.42;99.99
67249;SHT31;63247;54.300;18.592;2023-12-20T15:13:18;4.38;99.99
67249;SHT31;63247;54.300;18.592;2023-12-20T15:15:43;4.28;99.99
67249;SHT31;63247;54.300;18.592;2023-12-20T15:18:09;4.20;99.99
67249;SHT31;63247;54.300;18.592;2023-12-20T15:20:34;4.20;99.99
67249;SHT31;63247;54.300;18.592;2023-12-20T15:23:02;4.18;99.99